Hoko Maru — 7JEU — position and weather

sailwx.info

Track history (hours):
 
Tides and Currents Weather Stations Pressure Air Temp Water Temp Dewpoint Dewpoint Depression Visibility Wind Speed Wind Dir Waves Ship Positions

Hoko Maru

Last reported at 2018-Jul-22 01:00 UTC. Time now 2018-Jul-22 01:15 UTC.
Position N 34°40' E 135°26'.

Length 43 m; draft 4.2 m.

Type: Towing. MMSI: 432693000.

Date/timePositionNaut miles runAvg speedWind from/ knotsBaromVisibWave heightAir tempDewpointWater temp
2018-Jul-22 01:00N 34°40' E 135°26'0 0.0
2018-Jul-22 00:30N 34°40' E 135°26'0 0.0
2018-Jul-22 00:00N 34°40' E 135°26'0 0.0
2018-Jul-21 23:30N 34°40' E 135°26'0 0.0
2018-Jul-21 23:00N 34°40' E 135°26'0 0.0
2018-Jul-21 22:30N 34°39' E 135°26'0 0.0
2018-Jul-21 22:00N 34°40' E 135°26'0 0.0
2018-Jul-21 21:30N 34°40' E 135°26'0 0.0
2018-Jul-21 21:00N 34°40' E 135°26'0 0.0
2018-Jul-21 20:30N 34°40' E 135°26'0 0.0
2018-Jul-21 20:00N 34°39' E 135°26'0 0.0
2018-Jul-21 19:30N 34°40' E 135°26'0 0.0
2018-Jul-21 19:00N 34°40' E 135°26'0 0.0
2018-Jul-21 18:30N 34°39' E 135°26'0 0.0
2018-Jul-21 18:00N 34°39' E 135°26'0 0.0
2018-Jul-21 17:30N 34°40' E 135°26'0 0.0
2018-Jul-21 17:00N 34°40' E 135°26'0 0.0
2018-Jul-21 16:30N 34°39' E 135°26'0 0.0
2018-Jul-21 16:00N 34°39' E 135°26'0 0.0
2018-Jul-21 15:30N 34°40' E 135°26'0 0.0
2018-Jul-21 15:00N 34°40' E 135°26'0 0.0
2018-Jul-21 14:30N 34°40' E 135°26'0 0.0
2018-Jul-21 13:30N 34°39' E 135°26'0 0.0
2018-Jul-21 13:00N 34°40' E 135°26'0 0.0
2018-Jul-21 12:30N 34°40' E 135°26'0 0.0
2018-Jul-21 12:00N 34°40' E 135°26'0 0.0
2018-Jul-21 11:30N 34°40' E 135°26'0 0.0
2018-Jul-21 11:00N 34°40' E 135°26'0 0.0
2018-Jul-21 10:30N 34°39' E 135°26'0 0.0
2018-Jul-21 10:00N 34°40' E 135°26'0 0.0
2018-Jul-21 09:30N 34°40' E 135°26'0 0.0
2018-Jul-21 09:00N 34°39' E 135°26'0 0.0
2018-Jul-21 08:30N 34°39' E 135°26'0 0.0
2018-Jul-21 08:00N 34°40' E 135°26'0 0.0
2018-Jul-21 07:30N 34°39' E 135°26'0 0.0
2018-Jul-21 07:00N 34°40' E 135°26'0 0.0
2018-Jul-21 06:30N 34°40' E 135°26'0 0.0
2018-Jul-21 06:00N 34°39' E 135°26'0 0.0
2018-Jul-21 05:30N 34°39' E 135°26'0 0.0
2018-Jul-21 05:00N 34°40' E 135°26'0 0.0
2018-Jul-21 04:30N 34°39' E 135°26'0 0.0
2018-Jul-21 04:00N 34°40' E 135°26'0 0.0
2018-Jul-21 03:28N 34°40' E 135°26'0 0.0
2018-Jul-21 02:58N 34°39' E 135°26'0 0.0
2018-Jul-21 02:30N 34°39' E 135°26'0 0.0
2018-Jul-21 01:59N 34°40' E 135°26'0 0.0
2018-Jul-21 01:30N 34°39' E 135°26'0 0.9
2018-Jul-21 01:00N 34°39' E 135°25'2 5.0
2018-Jul-21 00:30N 34°38' E 135°23'3 5.8
2018-Jul-21 00:00N 34°36' E 135°20'2 3.9
2018-Jul-20 23:30N 34°35' E 135°18'1 3.0
2018-Jul-20 23:00N 34°34' E 135°17'0 0.4
2018-Jul-20 22:30N 34°34' E 135°16'0 0.4
2018-Jul-20 22:00N 34°34' E 135°16'1 1.1
2018-Jul-20 21:30N 34°33' E 135°16'1 2.9
2018-Jul-20 21:00N 34°32' E 135°15'1 2.9
2018-Jul-20 20:30N 34°31' E 135°14'2 2.7
2018-Jul-20 19:54N 34°30' E 135°13'1 2.8
2018-Jul-20 19:29N 34°29' E 135°12'1 2.8
2018-Jul-20 19:00N 34°28' E 135°11'1 2.8
2018-Jul-20 18:30N 34°27' E 135°09'1 2.9
2018-Jul-20 17:59N 34°26' E 135°08'1 2.8
2018-Jul-20 17:30N 34°25' E 135°07'1 2.8
2018-Jul-20 17:00N 34°23' E 135°06'2 3.0
2018-Jul-20 16:30N 34°22' E 135°05'1 2.9
2018-Jul-20 16:00N 34°21' E 135°04'1 3.0
2018-Jul-20 15:30N 34°20' E 135°03'1 2.8
2018-Jul-20 15:00N 34°19' E 135°01'2 3.2
2018-Jul-20 14:30N 34°18' E 135°00'2 3.4
2018-Jul-20 14:00N 34°16' E 134°59'2 4.4
2018-Jul-20 13:30N 34°14' E 134°59'3 4.7
2018-Jul-20 12:56N 34°11' E 134°59'2 5.1
2018-Jul-20 12:30N 34°09' E 134°59'2 4.8
2018-Jul-20 12:00N 34°07' E 134°59'2 4.9
2018-Jul-20 11:30N 34°04' E 134°58'2 4.9
2018-Jul-20 11:00N 34°02' E 134°58'2 4.6
2018-Jul-20 10:30N 33°60' E 134°58'2 4.0
2018-Jul-20 10:00N 33°58' E 134°58'3 5.3
2018-Jul-20 09:30N 33°55' E 134°57'3 5.9
2018-Jul-20 09:00N 33°52' E 134°57'  
Track history (hours):
 
Tides and Currents Weather Stations Pressure Air Temp Water Temp Dewpoint Dewpoint Depression Visibility Wind Speed Wind Dir Waves Ship Positions

Hoko Maru

Last reported at 2018-Jul-22 01:00 UTC. Time now 2018-Jul-22 01:15 UTC.
Position N 34°40' E 135°26'.

Length 43 m; draft 4.2 m.

Type: Towing. MMSI: 432693000.

Date/timePositionNaut miles runAvg speedWind from/ knotsBaromVisibWave heightAir tempDewpointWater temp
2018-Jul-22 01:00N 34°40' E 135°26'0 0.0
2018-Jul-22 00:30N 34°40' E 135°26'0 0.0
2018-Jul-22 00:00N 34°40' E 135°26'0 0.0
2018-Jul-21 23:30N 34°40' E 135°26'0 0.0
2018-Jul-21 23:00N 34°40' E 135°26'0 0.0
2018-Jul-21 22:30N 34°39' E 135°26'0 0.0
2018-Jul-21 22:00N 34°40' E 135°26'0 0.0
2018-Jul-21 21:30N 34°40' E 135°26'0 0.0
2018-Jul-21 21:00N 34°40' E 135°26'0 0.0
2018-Jul-21 20:30N 34°40' E 135°26'0 0.0
2018-Jul-21 20:00N 34°39' E 135°26'0 0.0
2018-Jul-21 19:30N 34°40' E 135°26'0 0.0
2018-Jul-21 19:00N 34°40' E 135°26'0 0.0
2018-Jul-21 18:30N 34°39' E 135°26'0 0.0
2018-Jul-21 18:00N 34°39' E 135°26'0 0.0
2018-Jul-21 17:30N 34°40' E 135°26'0 0.0
2018-Jul-21 17:00N 34°40' E 135°26'0 0.0
2018-Jul-21 16:30N 34°39' E 135°26'0 0.0
2018-Jul-21 16:00N 34°39' E 135°26'0 0.0
2018-Jul-21 15:30N 34°40' E 135°26'0 0.0
2018-Jul-21 15:00N 34°40' E 135°26'0 0.0
2018-Jul-21 14:30N 34°40' E 135°26'0 0.0
2018-Jul-21 13:30N 34°39' E 135°26'0 0.0
2018-Jul-21 13:00N 34°40' E 135°26'0 0.0
2018-Jul-21 12:30N 34°40' E 135°26'0 0.0
2018-Jul-21 12:00N 34°40' E 135°26'0 0.0
2018-Jul-21 11:30N 34°40' E 135°26'0 0.0
2018-Jul-21 11:00N 34°40' E 135°26'0 0.0
2018-Jul-21 10:30N 34°39' E 135°26'0 0.0
2018-Jul-21 10:00N 34°40' E 135°26'0 0.0
2018-Jul-21 09:30N 34°40' E 135°26'0 0.0
2018-Jul-21 09:00N 34°39' E 135°26'0 0.0
2018-Jul-21 08:30N 34°39' E 135°26'0 0.0
2018-Jul-21 08:00N 34°40' E 135°26'0 0.0
2018-Jul-21 07:30N 34°39' E 135°26'0 0.0
2018-Jul-21 07:00N 34°40' E 135°26'0 0.0
2018-Jul-21 06:30N 34°40' E 135°26'0 0.0
2018-Jul-21 06:00N 34°39' E 135°26'0 0.0
2018-Jul-21 05:30N 34°39' E 135°26'0 0.0
2018-Jul-21 05:00N 34°40' E 135°26'0 0.0
2018-Jul-21 04:30N 34°39' E 135°26'0 0.0
2018-Jul-21 04:00N 34°40' E 135°26'0 0.0
2018-Jul-21 03:28N 34°40' E 135°26'0 0.0
2018-Jul-21 02:58N 34°39' E 135°26'0 0.0
2018-Jul-21 02:30N 34°39' E 135°26'0 0.0
2018-Jul-21 01:59N 34°40' E 135°26'0 0.0
2018-Jul-21 01:30N 34°39' E 135°26'0 0.9
2018-Jul-21 01:00N 34°39' E 135°25'2 5.0
2018-Jul-21 00:30N 34°38' E 135°23'3 5.8
2018-Jul-21 00:00N 34°36' E 135°20'2 3.9
2018-Jul-20 23:30N 34°35' E 135°18'1 3.0
2018-Jul-20 23:00N 34°34' E 135°17'0 0.4
2018-Jul-20 22:30N 34°34' E 135°16'0 0.4
2018-Jul-20 22:00N 34°34' E 135°16'1 1.1
2018-Jul-20 21:30N 34°33' E 135°16'1 2.9
2018-Jul-20 21:00N 34°32' E 135°15'1 2.9
2018-Jul-20 20:30N 34°31' E 135°14'2 2.7
2018-Jul-20 19:54N 34°30' E 135°13'1 2.8
2018-Jul-20 19:29N 34°29' E 135°12'1 2.8
2018-Jul-20 19:00N 34°28' E 135°11'1 2.8
2018-Jul-20 18:30N 34°27' E 135°09'1 2.9
2018-Jul-20 17:59N 34°26' E 135°08'1 2.8
2018-Jul-20 17:30N 34°25' E 135°07'1 2.8
2018-Jul-20 17:00N 34°23' E 135°06'2 3.0
2018-Jul-20 16:30N 34°22' E 135°05'1 2.9
2018-Jul-20 16:00N 34°21' E 135°04'1 3.0
2018-Jul-20 15:30N 34°20' E 135°03'1 2.8
2018-Jul-20 15:00N 34°19' E 135°01'2 3.2
2018-Jul-20 14:30N 34°18' E 135°00'2 3.4
2018-Jul-20 14:00N 34°16' E 134°59'2 4.4
2018-Jul-20 13:30N 34°14' E 134°59'3 4.7
2018-Jul-20 12:56N 34°11' E 134°59'2 5.1
2018-Jul-20 12:30N 34°09' E 134°59'2 4.8
2018-Jul-20 12:00N 34°07' E 134°59'2 4.9
2018-Jul-20 11:30N 34°04' E 134°58'2 4.9
2018-Jul-20 11:00N 34°02' E 134°58'2 4.6
2018-Jul-20 10:30N 33°60' E 134°58'2 4.0
2018-Jul-20 10:00N 33°58' E 134°58'3 5.3
2018-Jul-20 09:30N 33°55' E 134°57'3 5.9
2018-Jul-20 09:00N 33°52' E 134°57'  

Dump ship's entire track history